sensor_id;sensor_type;location;lat;lon;timestamp;P1;durP1;ratioP1;P2;durP2;ratioP2
62616;SDS011;62539;51.190;6.808;2023-09-19T00:00:19;4.53;;;1.67;;
62616;SDS011;62539;51.190;6.808;2023-09-19T00:03:06;1.25;;;0.95;;
62616;SDS011;62539;51.190;6.808;2023-09-19T00:05:33;2.22;;;1.13;;
62616;SDS011;62539;51.190;6.808;2023-09-19T00:08:01;4.13;;;1.30;;
62616;SDS011;62539;51.190;6.808;2023-09-19T00:10:30;4.95;;;1.27;;
62616;SDS011;62539;51.190;6.808;2023-09-19T00:13:02;2.25;;;1.27;;
62616;SDS011;62539;51.190;6.808;2023-09-19T00:15:44;4.30;;;1.27;;
62616;SDS011;62539;51.190;6.808;2023-09-19T00:18:15;4.00;;;1.30;;
62616;SDS011;62539;51.190;6.808;2023-09-19T00:20:42;1.92;;;1.05;;
62616;SDS011;62539;51.190;6.808;2023-09-19T00:23:07;1.98;;;1.13;;
62616;SDS011;62539;51.190;6.808;2023-09-19T00:25:33;2.10;;;1.30;;
62616;SDS011;62539;51.190;6.808;2023-09-19T00:28:05;2.70;;;1.25;;
62616;SDS011;62539;51.190;6.808;2023-09-19T00:30:32;3.00;;;1.43;;
62616;SDS011;62539;51.190;6.808;2023-09-19T00:33:01;3.50;;;1.10;;
62616;SDS011;62539;51.190;6.808;2023-09-19T00:35:30;1.90;;;1.10;;
62616;SDS011;62539;51.190;6.808;2023-09-19T00:37:56;2.20;;;1.00;;
62616;SDS011;62539;51.190;6.808;2023-09-19T00:40:21;1.73;;;1.00;;
62616;SDS011;62539;51.190;6.808;2023-09-19T00:42:47;4.22;;;1.20;;
62616;SDS011;62539;51.190;6.808;2023-09-19T00:45:15;2.85;;;1.33;;
62616;SDS011;62539;51.190;6.808;2023-09-19T00:47:49;2.25;;;1.02;;
62616;SDS011;62539;51.190;6.808;2023-09-19T00:50:17;5.97;;;1.30;;
62616;SDS011;62539;51.190;6.808;2023-09-19T00:52:46;3.85;;;1.20;;
62616;SDS011;62539;51.190;6.808;2023-09-19T00:55:14;3.05;;;1.20;;
62616;SDS011;62539;51.190;6.808;2023-09-19T00:57:41;3.88;;;1.13;;
62616;SDS011;62539;51.190;6.808;2023-09-19T01:00:08;2.28;;;1.10;;
62616;SDS011;62539;51.190;6.808;2023-09-19T01:02:43;3.72;;;1.30;;
62616;SDS011;62539;51.190;6.808;2023-09-19T01:05:09;2.72;;;1.27;;
62616;SDS011;62539;51.190;6.808;2023-09-19T01:07:35;2.85;;;1.10;;
62616;SDS011;62539;51.190;6.808;2023-09-19T01:10:05;2.10;;;1.07;;
62616;SDS011;62539;51.190;6.808;2023-09-19T01:16:42;6.03;;;1.52;;
62616;SDS011;62539;51.190;6.808;2023-09-19T01:24:48;3.72;;;1.17;;
62616;SDS011;62539;51.190;6.808;2023-09-19T01:30:27;2.97;;;1.00;;
62616;SDS011;62539;51.190;6.808;2023-09-19T01:33:01;2.25;;;1.15;;
62616;SDS011;62539;51.190;6.808;2023-09-19T01:35:28;3.67;;;1.30;;
62616;SDS011;62539;51.190;6.808;2023-09-19T01:37:54;9.27;;;1.48;;
62616;SDS011;62539;51.190;6.808;2023-09-19T01:40:19;5.28;;;1.23;;
62616;SDS011;62539;51.190;6.808;2023-09-19T01:42:49;3.47;;;1.02;;
62616;SDS011;62539;51.190;6.808;2023-09-19T01:48:25;3.95;;;1.20;;
62616;SDS011;62539;51.190;6.808;2023-09-19T01:54:16;4.25;;;1.08;;
62616;SDS011;62539;51.190;6.808;2023-09-19T01:59:45;3.35;;;1.33;;
62616;SDS011;62539;51.190;6.808;2023-09-19T02:02:19;2.40;;;1.10;;
62616;SDS011;62539;51.190;6.808;2023-09-19T02:04:48;2.53;;;1.25;;
62616;SDS011;62539;51.190;6.808;2023-09-19T02:07:15;2.25;;;1.25;;
62616;SDS011;62539;51.190;6.808;2023-09-19T02:09:41;1.33;;;1.10;;
62616;SDS011;62539;51.190;6.808;2023-09-19T02:12:08;1.38;;;0.98;;
62616;SDS011;62539;51.190;6.808;2023-09-19T02:14:34;2.45;;;1.15;;
62616;SDS011;62539;51.190;6.808;2023-09-19T02:17:01;2.65;;;0.90;;
62616;SDS011;62539;51.190;6.808;2023-09-19T02:19:31;5.85;;;1.13;;
62616;SDS011;62539;51.190;6.808;2023-09-19T02:21:58;3.97;;;1.65;;
62616;SDS011;62539;51.190;6.808;2023-09-19T02:24:25;3.42;;;1.10;;
62616;SDS011;62539;51.190;6.808;2023-09-19T02:26:51;2.58;;;1.00;;
62616;SDS011;62539;51.190;6.808;2023-09-19T02:29:17;3.70;;;1.15;;
62616;SDS011;62539;51.190;6.808;2023-09-19T02:31:42;3.65;;;1.10;;
62616;SDS011;62539;51.190;6.808;2023-09-19T02:34:08;2.55;;;0.95;;
62616;SDS011;62539;51.190;6.808;2023-09-19T02:36:34;3.80;;;1.23;;
62616;SDS011;62539;51.190;6.808;2023-09-19T02:39:01;2.60;;;0.98;;
62616;SDS011;62539;51.190;6.808;2023-09-19T02:41:26;4.43;;;1.13;;
62616;SDS011;62539;51.190;6.808;2023-09-19T02:43:54;3.17;;;1.13;;
62616;SDS011;62539;51.190;6.808;2023-09-19T02:46:19;2.30;;;1.23;;
62616;SDS011;62539;51.190;6.808;2023-09-19T02:48:45;4.20;;;1.00;;
62616;SDS011;62539;51.190;6.808;2023-09-19T02:51:10;1.45;;;1.00;;
62616;SDS011;62539;51.190;6.808;2023-09-19T02:53:36;2.58;;;1.00;;
62616;SDS011;62539;51.190;6.808;2023-09-19T02:56:01;2.05;;;1.17;;
62616;SDS011;62539;51.190;6.808;2023-09-19T02:58:29;1.92;;;0.80;;
62616;SDS011;62539;51.190;6.808;2023-09-19T03:00:55;2.92;;;1.20;;
62616;SDS011;62539;51.190;6.808;2023-09-19T03:03:20;3.95;;;1.30;;
62616;SDS011;62539;51.190;6.808;2023-09-19T03:05:46;3.65;;;1.20;;
62616;SDS011;62539;51.190;6.808;2023-09-19T03:08:15;2.67;;;1.13;;
62616;SDS011;62539;51.190;6.808;2023-09-19T03:10:41;2.80;;;1.33;;
62616;SDS011;62539;51.190;6.808;2023-09-19T03:13:07;4.93;;;1.23;;
62616;SDS011;62539;51.190;6.808;2023-09-19T03:15:34;2.40;;;1.08;;
62616;SDS011;62539;51.190;6.808;2023-09-19T03:18:03;3.35;;;1.17;;
62616;SDS011;62539;51.190;6.808;2023-09-19T03:20:30;3.20;;;0.80;;
62616;SDS011;62539;51.190;6.808;2023-09-19T03:22:55;2.17;;;1.00;;
62616;SDS011;62539;51.190;6.808;2023-09-19T03:25:22;3.42;;;1.35;;
62616;SDS011;62539;51.190;6.808;2023-09-19T03:27:47;4.72;;;1.23;;
62616;SDS011;62539;51.190;6.808;2023-09-19T03:30:13;3.97;;;1.00;;
62616;SDS011;62539;51.190;6.808;2023-09-19T03:32:48;5.43;;;1.10;;
62616;SDS011;62539;51.190;6.808;2023-09-19T03:35:15;3.40;;;1.20;;
62616;SDS011;62539;51.190;6.808;2023-09-19T03:37:41;7.72;;;1.30;;
62616;SDS011;62539;51.190;6.808;2023-09-19T03:40:09;2.28;;;0.98;;
62616;SDS011;62539;51.190;6.808;2023-09-19T03:42:39;2.88;;;1.15;;
62616;SDS011;62539;51.190;6.808;2023-09-19T03:45:06;4.45;;;1.42;;
62616;SDS011;62539;51.190;6.808;2023-09-19T03:47:37;2.47;;;1.05;;
62616;SDS011;62539;51.190;6.808;2023-09-19T03:50:03;3.13;;;1.13;;
62616;SDS011;62539;51.190;6.808;2023-09-19T03:52:32;4.72;;;1.20;;
62616;SDS011;62539;51.190;6.808;2023-09-19T03:54:57;2.55;;;1.27;;
62616;SDS011;62539;51.190;6.808;2023-09-19T03:57:23;2.17;;;1.05;;
62616;SDS011;62539;51.190;6.808;2023-09-19T03:59:48;2.53;;;1.10;;
62616;SDS011;62539;51.190;6.808;2023-09-19T04:02:14;3.53;;;1.20;;
62616;SDS011;62539;51.190;6.808;2023-09-19T04:04:56;5.00;;;1.20;;
62616;SDS011;62539;51.190;6.808;2023-09-19T04:07:21;5.90;;;1.10;;
62616;SDS011;62539;51.190;6.808;2023-09-19T04:09:47;3.78;;;1.10;;
62616;SDS011;62539;51.190;6.808;2023-09-19T04:12:14;6.53;;;1.40;;
62616;SDS011;62539;51.190;6.808;2023-09-19T04:14:42;4.32;;;1.20;;
62616;SDS011;62539;51.190;6.808;2023-09-19T04:17:07;3.72;;;1.10;;
62616;SDS011;62539;51.190;6.808;2023-09-19T04:19:33;3.58;;;1.10;;
62616;SDS011;62539;51.190;6.808;2023-09-19T04:21:58;2.97;;;1.13;;
62616;SDS011;62539;51.190;6.808;2023-09-19T04:24:24;4.07;;;1.23;;
62616;SDS011;62539;51.190;6.808;2023-09-19T04:26:49;2.30;;;1.20;;
62616;SDS011;62539;51.190;6.808;2023-09-19T04:29:14;3.85;;;1.33;;
62616;SDS011;62539;51.190;6.808;2023-09-19T04:31:40;1.83;;;1.10;;
62616;SDS011;62539;51.190;6.808;2023-09-19T04:34:09;2.83;;;0.98;;
62616;SDS011;62539;51.190;6.808;2023-09-19T04:36:35;1.92;;;1.10;;
62616;SDS011;62539;51.190;6.808;2023-09-19T04:39:01;5.10;;;1.50;;
62616;SDS011;62539;51.190;6.808;2023-09-19T04:41:32;3.33;;;1.20;;
62616;SDS011;62539;51.190;6.808;2023-09-19T04:43:58;4.22;;;1.48;;
62616;SDS011;62539;51.190;6.808;2023-09-19T04:46:24;3.05;;;1.23;;
62616;SDS011;62539;51.190;6.808;2023-09-19T04:48:49;4.07;;;1.15;;
62616;SDS011;62539;51.190;6.808;2023-09-19T04:51:15;3.05;;;1.20;;
62616;SDS011;62539;51.190;6.808;2023-09-19T04:53:41;5.45;;;1.23;;
62616;SDS011;62539;51.190;6.808;2023-09-19T04:56:07;3.05;;;1.48;;
62616;SDS011;62539;51.190;6.808;2023-09-19T04:58:33;4.38;;;1.20;;
62616;SDS011;62539;51.190;6.808;2023-09-19T05:00:58;4.40;;;1.10;;
62616;SDS011;62539;51.190;6.808;2023-09-19T05:03:24;5.10;;;1.50;;
62616;SDS011;62539;51.190;6.808;2023-09-19T05:05:50;5.15;;;1.20;;
62616;SDS011;62539;51.190;6.808;2023-09-19T05:08:15;2.50;;;1.10;;
62616;SDS011;62539;51.190;6.808;2023-09-19T05:10:41;4.03;;;1.40;;
62616;SDS011;62539;51.190;6.808;2023-09-19T05:13:06;9.27;;;1.90;;
62616;SDS011;62539;51.190;6.808;2023-09-19T05:15:32;7.90;;;1.60;;
62616;SDS011;62539;51.190;6.808;2023-09-19T05:18:00;6.32;;;1.45;;
62616;SDS011;62539;51.190;6.808;2023-09-19T05:20:26;7.03;;;1.60;;
62616;SDS011;62539;51.190;6.808;2023-09-19T05:22:58;4.05;;;1.48;;
62616;SDS011;62539;51.190;6.808;2023-09-19T05:25:34;23.58;;;5.78;;
62616;SDS011;62539;51.190;6.808;2023-09-19T05:28:07;9.00;;;3.40;;
62616;SDS011;62539;51.190;6.808;2023-09-19T05:30:36;10.32;;;2.83;;
62616;SDS011;62539;51.190;6.808;2023-09-19T05:33:03;10.55;;;2.65;;
62616;SDS011;62539;51.190;6.808;2023-09-19T05:35:30;18.27;;;2.60;;
62616;SDS011;62539;51.190;6.808;2023-09-19T05:37:57;16.05;;;2.50;;
62616;SDS011;62539;51.190;6.808;2023-09-19T05:40:23;11.57;;;2.13;;
62616;SDS011;62539;51.190;6.808;2023-09-19T05:42:50;9.85;;;2.13;;
62616;SDS011;62539;51.190;6.808;2023-09-19T05:45:16;10.10;;;2.30;;
62616;SDS011;62539;51.190;6.808;2023-09-19T05:47:47;5.60;;;2.17;;
62616;SDS011;62539;51.190;6.808;2023-09-19T05:50:16;9.00;;;2.35;;
62616;SDS011;62539;51.190;6.808;2023-09-19T05:52:41;6.28;;;2.30;;
62616;SDS011;62539;51.190;6.808;2023-09-19T05:55:09;12.15;;;2.13;;
62616;SDS011;62539;51.190;6.808;2023-09-19T05:57:35;8.50;;;2.00;;
62616;SDS011;62539;51.190;6.808;2023-09-19T06:00:04;10.20;;;2.20;;
62616;SDS011;62539;51.190;6.808;2023-09-19T06:02:36;6.20;;;1.92;;
62616;SDS011;62539;51.190;6.808;2023-09-19T06:05:03;15.05;;;2.40;;
62616;SDS011;62539;51.190;6.808;2023-09-19T06:07:31;6.85;;;2.00;;
62616;SDS011;62539;51.190;6.808;2023-09-19T06:10:02;8.85;;;2.30;;
62616;SDS011;62539;51.190;6.808;2023-09-19T06:12:32;5.97;;;2.00;;
62616;SDS011;62539;51.190;6.808;2023-09-19T06:15:02;6.78;;;1.90;;
62616;SDS011;62539;51.190;6.808;2023-09-19T06:17:30;10.35;;;2.17;;
62616;SDS011;62539;51.190;6.808;2023-09-19T06:19:56;6.57;;;1.90;;
62616;SDS011;62539;51.190;6.808;2023-09-19T06:22:21;8.00;;;2.10;;
62616;SDS011;62539;51.190;6.808;2023-09-19T06:24:49;7.95;;;1.48;;
62616;SDS011;62539;51.190;6.808;2023-09-19T06:27:15;6.07;;;1.60;;
62616;SDS011;62539;51.190;6.808;2023-09-19T06:29:40;6.47;;;1.73;;
62616;SDS011;62539;51.190;6.808;2023-09-19T06:32:07;6.05;;;1.70;;
62616;SDS011;62539;51.190;6.808;2023-09-19T06:34:36;6.63;;;2.20;;
62616;SDS011;62539;51.190;6.808;2023-09-19T06:37:03;5.85;;;1.80;;
62616;SDS011;62539;51.190;6.808;2023-09-19T06:39:31;6.97;;;1.90;;
62616;SDS011;62539;51.190;6.808;2023-09-19T06:41:57;6.88;;;1.83;;
62616;SDS011;62539;51.190;6.808;2023-09-19T06:44:23;6.38;;;1.65;;
62616;SDS011;62539;51.190;6.808;2023-09-19T06:46:49;9.60;;;1.75;;
62616;SDS011;62539;51.190;6.808;2023-09-19T06:49:16;4.72;;;1.60;;
62616;SDS011;62539;51.190;6.808;2023-09-19T06:51:44;7.70;;;2.15;;
62616;SDS011;62539;51.190;6.808;2023-09-19T06:54:10;14.63;;;1.75;;
62616;SDS011;62539;51.190;6.808;2023-09-19T06:56:36;5.43;;;1.63;;
62616;SDS011;62539;51.190;6.808;2023-09-19T06:59:01;6.07;;;1.83;;
62616;SDS011;62539;51.190;6.808;2023-09-19T07:01:28;5.97;;;1.77;;
62616;SDS011;62539;51.190;6.808;2023-09-19T07:03:54;7.00;;;1.95;;
62616;SDS011;62539;51.190;6.808;2023-09-19T07:06:19;5.95;;;1.90;;
62616;SDS011;62539;51.190;6.808;2023-09-19T07:08:45;6.55;;;1.60;;
62616;SDS011;62539;51.190;6.808;2023-09-19T07:11:10;3.33;;;1.42;;
62616;SDS011;62539;51.190;6.808;2023-09-19T07:13:37;6.25;;;1.60;;
62616;SDS011;62539;51.190;6.808;2023-09-19T07:16:03;6.70;;;1.77;;
62616;SDS011;62539;51.190;6.808;2023-09-19T07:18:29;6.32;;;1.67;;
62616;SDS011;62539;51.190;6.808;2023-09-19T07:20:57;5.05;;;1.60;;
62616;SDS011;62539;51.190;6.808;2023-09-19T07:23:29;7.80;;;1.85;;
62616;SDS011;62539;51.190;6.808;2023-09-19T07:26:00;5.70;;;1.63;;
62616;SDS011;62539;51.190;6.808;2023-09-19T07:28:26;5.63;;;1.80;;
62616;SDS011;62539;51.190;6.808;2023-09-19T07:30:52;4.68;;;1.60;;
62616;SDS011;62539;51.190;6.808;2023-09-19T07:33:17;5.68;;;1.67;;
62616;SDS011;62539;51.190;6.808;2023-09-19T07:35:46;4.10;;;1.50;;
62616;SDS011;62539;51.190;6.808;2023-09-19T07:38:12;6.25;;;1.60;;
62616;SDS011;62539;51.190;6.808;2023-09-19T07:40:38;2.95;;;1.25;;
62616;SDS011;62539;51.190;6.808;2023-09-19T07:43:04;5.20;;;1.90;;
62616;SDS011;62539;51.190;6.808;2023-09-19T07:45:31;4.35;;;1.67;;
62616;SDS011;62539;51.190;6.808;2023-09-19T07:47:57;3.30;;;1.48;;
62616;SDS011;62539;51.190;6.808;2023-09-19T07:50:23;5.38;;;1.33;;
62616;SDS011;62539;51.190;6.808;2023-09-19T07:52:51;2.05;;;1.15;;
62616;SDS011;62539;51.190;6.808;2023-09-19T07:55:17;4.13;;;1.58;;
62616;SDS011;62539;51.190;6.808;2023-09-19T07:57:44;3.50;;;1.33;;
62616;SDS011;62539;51.190;6.808;2023-09-19T08:00:11;2.65;;;1.13;;
62616;SDS011;62539;51.190;6.808;2023-09-19T08:02:38;4.13;;;1.38;;
62616;SDS011;62539;51.190;6.808;2023-09-19T08:05:08;7.22;;;1.55;;
62616;SDS011;62539;51.190;6.808;2023-09-19T08:07:36;4.38;;;1.52;;
62616;SDS011;62539;51.190;6.808;2023-09-19T08:10:06;3.97;;;1.23;;
62616;SDS011;62539;51.190;6.808;2023-09-19T08:15:02;3.47;;;1.27;;
62616;SDS011;62539;51.190;6.808;2023-09-19T08:17:28;5.45;;;1.88;;
62616;SDS011;62539;51.190;6.808;2023-09-19T08:19:54;4.57;;;1.50;;
62616;SDS011;62539;51.190;6.808;2023-09-19T08:22:19;4.43;;;1.45;;
62616;SDS011;62539;51.190;6.808;2023-09-19T08:24:46;4.13;;;1.70;;
62616;SDS011;62539;51.190;6.808;2023-09-19T08:27:13;3.40;;;1.60;;
62616;SDS011;62539;51.190;6.808;2023-09-19T08:29:38;4.40;;;1.30;;
62616;SDS011;62539;51.190;6.808;2023-09-19T08:32:05;3.65;;;1.63;;
62616;SDS011;62539;51.190;6.808;2023-09-19T08:34:30;4.35;;;1.50;;
62616;SDS011;62539;51.190;6.808;2023-09-19T08:36:58;3.17;;;1.25;;
62616;SDS011;62539;51.190;6.808;2023-09-19T08:39:24;3.35;;;1.27;;
62616;SDS011;62539;51.190;6.808;2023-09-19T08:41:57;5.18;;;2.00;;
62616;SDS011;62539;51.190;6.808;2023-09-19T08:44:24;3.05;;;1.35;;
62616;SDS011;62539;51.190;6.808;2023-09-19T08:46:50;3.83;;;1.23;;
62616;SDS011;62539;51.190;6.808;2023-09-19T08:52:10;3.80;;;1.55;;
62616;SDS011;62539;51.190;6.808;2023-09-19T08:54:48;4.05;;;1.20;;
62616;SDS011;62539;51.190;6.808;2023-09-19T08:57:19;3.10;;;1.40;;
62616;SDS011;62539;51.190;6.808;2023-09-19T08:59:47;3.88;;;1.17;;
62616;SDS011;62539;51.190;6.808;2023-09-19T09:02:16;5.93;;;1.30;;
62616;SDS011;62539;51.190;6.808;2023-09-19T09:04:46;4.43;;;1.45;;
62616;SDS011;62539;51.190;6.808;2023-09-19T09:07:14;4.13;;;1.50;;
62616;SDS011;62539;51.190;6.808;2023-09-19T09:09:41;2.72;;;1.27;;
62616;SDS011;62539;51.190;6.808;2023-09-19T09:12:10;2.05;;;1.00;;
62616;SDS011;62539;51.190;6.808;2023-09-19T09:14:38;7.17;;;1.37;;
62616;SDS011;62539;51.190;6.808;2023-09-19T09:17:05;3.00;;;1.20;;
62616;SDS011;62539;51.190;6.808;2023-09-19T09:19:30;3.33;;;1.25;;
62616;SDS011;62539;51.190;6.808;2023-09-19T09:22:17;3.20;;;1.10;;
62616;SDS011;62539;51.190;6.808;2023-09-19T09:24:55;4.28;;;1.50;;
62616;SDS011;62539;51.190;6.808;2023-09-19T09:27:30;1.67;;;1.00;;
62616;SDS011;62539;51.190;6.808;2023-09-19T09:29:57;3.72;;;1.45;;
62616;SDS011;62539;51.190;6.808;2023-09-19T09:37:25;6.43;;;1.10;;
62616;SDS011;62539;51.190;6.808;2023-09-19T09:39:55;4.30;;;1.40;;
62616;SDS011;62539;51.190;6.808;2023-09-19T09:42:48;2.13;;;1.10;;
62616;SDS011;62539;51.190;6.808;2023-09-19T09:45:23;3.38;;;1.55;;
62616;SDS011;62539;51.190;6.808;2023-09-19T09:47:58;2.67;;;1.40;;
62616;SDS011;62539;51.190;6.808;2023-09-19T09:53:28;3.72;;;1.35;;
62616;SDS011;62539;51.190;6.808;2023-09-19T09:58:34;1.90;;;0.80;;
62616;SDS011;62539;51.190;6.808;2023-09-19T10:01:14;3.53;;;1.30;;
62616;SDS011;62539;51.190;6.808;2023-09-19T10:03:43;1.42;;;0.82;;
62616;SDS011;62539;51.190;6.808;2023-09-19T10:06:13;5.22;;;1.30;;
62616;SDS011;62539;51.190;6.808;2023-09-19T10:11:43;4.57;;;1.25;;
62616;SDS011;62539;51.190;6.808;2023-09-19T10:14:11;3.03;;;1.00;;
62616;SDS011;62539;51.190;6.808;2023-09-19T10:16:48;2.05;;;1.05;;
62616;SDS011;62539;51.190;6.808;2023-09-19T10:19:20;5.22;;;1.30;;
62616;SDS011;62539;51.190;6.808;2023-09-19T10:21:55;2.00;;;1.02;;
62616;SDS011;62539;51.190;6.808;2023-09-19T10:24:24;6.70;;;1.20;;
62616;SDS011;62539;51.190;6.808;2023-09-19T10:26:53;5.07;;;1.10;;
62616;SDS011;62539;51.190;6.808;2023-09-19T10:29:19;3.70;;;1.15;;
62616;SDS011;62539;51.190;6.808;2023-09-19T10:31:49;4.37;;;1.33;;
62616;SDS011;62539;51.190;6.808;2023-09-19T10:34:18;2.97;;;1.30;;
62616;SDS011;62539;51.190;6.808;2023-09-19T10:36:47;3.17;;;1.20;;
62616;SDS011;62539;51.190;6.808;2023-09-19T10:39:14;2.40;;;1.17;;
62616;SDS011;62539;51.190;6.808;2023-09-19T10:41:44;2.33;;;0.85;;
62616;SDS011;62539;51.190;6.808;2023-09-19T10:44:19;2.55;;;1.25;;
62616;SDS011;62539;51.190;6.808;2023-09-19T10:46:53;3.95;;;1.42;;
62616;SDS011;62539;51.190;6.808;2023-09-19T10:49:20;3.72;;;1.02;;
62616;SDS011;62539;51.190;6.808;2023-09-19T10:51:46;2.47;;;1.20;;
62616;SDS011;62539;51.190;6.808;2023-09-19T10:54:18;4.30;;;1.35;;
62616;SDS011;62539;51.190;6.808;2023-09-19T10:56:51;2.88;;;1.27;;
62616;SDS011;62539;51.190;6.808;2023-09-19T10:59:19;3.92;;;1.35;;
62616;SDS011;62539;51.190;6.808;2023-09-19T11:04:30;6.53;;;1.40;;
62616;SDS011;62539;51.190;6.808;2023-09-19T11:07:05;6.22;;;1.50;;
62616;SDS011;62539;51.190;6.808;2023-09-19T11:26:41;8.77;;;2.05;;
62616;SDS011;62539;51.190;6.808;2023-09-19T11:29:28;8.05;;;1.70;;
62616;SDS011;62539;51.190;6.808;2023-09-19T11:31:55;8.00;;;1.30;;
62616;SDS011;62539;51.190;6.808;2023-09-19T11:39:36;9.18;;;1.50;;
62616;SDS011;62539;51.190;6.808;2023-09-19T11:42:05;4.57;;;1.60;;
62616;SDS011;62539;51.190;6.808;2023-09-19T11:45:07;5.38;;;1.50;;
62616;SDS011;62539;51.190;6.808;2023-09-19T11:47:32;4.15;;;1.75;;
62616;SDS011;62539;51.190;6.808;2023-09-19T11:50:01;2.65;;;1.00;;
62616;SDS011;62539;51.190;6.808;2023-09-19T11:52:27;4.65;;;1.40;;
62616;SDS011;62539;51.190;6.808;2023-09-19T11:55:00;3.33;;;1.23;;
62616;SDS011;62539;51.190;6.808;2023-09-19T11:57:27;4.85;;;1.73;;
62616;SDS011;62539;51.190;6.808;2023-09-19T11:59:55;3.42;;;1.30;;
62616;SDS011;62539;51.190;6.808;2023-09-19T12:02:34;3.60;;;1.48;;
62616;SDS011;62539;51.190;6.808;2023-09-19T12:05:07;3.10;;;1.30;;
62616;SDS011;62539;51.190;6.808;2023-09-19T12:07:41;3.75;;;1.50;;
62616;SDS011;62539;51.190;6.808;2023-09-19T12:10:13;4.68;;;1.77;;
62616;SDS011;62539;51.190;6.808;2023-09-19T12:12:46;4.30;;;1.42;;
62616;SDS011;62539;51.190;6.808;2023-09-19T12:15:14;3.85;;;1.65;;
62616;SDS011;62539;51.190;6.808;2023-09-19T12:17:40;8.88;;;1.48;;
62616;SDS011;62539;51.190;6.808;2023-09-19T12:20:08;4.38;;;1.40;;
62616;SDS011;62539;51.190;6.808;2023-09-19T12:22:39;3.50;;;1.20;;
62616;SDS011;62539;51.190;6.808;2023-09-19T12:25:08;7.78;;;1.38;;
62616;SDS011;62539;51.190;6.808;2023-09-19T12:27:42;3.17;;;1.58;;
62616;SDS011;62539;51.190;6.808;2023-09-19T12:30:11;1.52;;;1.13;;
62616;SDS011;62539;51.190;6.808;2023-09-19T12:32:44;2.38;;;1.30;;
62616;SDS011;62539;51.190;6.808;2023-09-19T12:35:10;4.20;;;1.52;;
62616;SDS011;62539;51.190;6.808;2023-09-19T12:37:53;3.25;;;1.50;;
62616;SDS011;62539;51.190;6.808;2023-09-19T12:40:20;11.95;;;1.40;;
62616;SDS011;62539;51.190;6.808;2023-09-19T12:42:52;7.72;;;1.80;;
62616;SDS011;62539;51.190;6.808;2023-09-19T12:45:27;9.00;;;1.42;;
62616;SDS011;62539;51.190;6.808;2023-09-19T12:53:41;4.07;;;1.50;;
62616;SDS011;62539;51.190;6.808;2023-09-19T12:56:10;4.87;;;1.27;;
62616;SDS011;62539;51.190;6.808;2023-09-19T13:01:37;2.50;;;1.15;;
62616;SDS011;62539;51.190;6.808;2023-09-19T13:04:15;3.72;;;1.33;;
62616;SDS011;62539;51.190;6.808;2023-09-19T13:06:54;4.93;;;1.20;;
62616;SDS011;62539;51.190;6.808;2023-09-19T13:09:24;2.58;;;1.02;;
62616;SDS011;62539;51.190;6.808;2023-09-19T13:12:04;2.88;;;1.30;;
62616;SDS011;62539;51.190;6.808;2023-09-19T13:15:06;2.75;;;1.13;;
62616;SDS011;62539;51.190;6.808;2023-09-19T13:17:47;2.78;;;1.05;;
62616;SDS011;62539;51.190;6.808;2023-09-19T13:20:26;1.95;;;0.88;;
62616;SDS011;62539;51.190;6.808;2023-09-19T13:22:52;2.17;;;1.23;;
62616;SDS011;62539;51.190;6.808;2023-09-19T13:25:35;3.17;;;1.08;;
62616;SDS011;62539;51.190;6.808;2023-09-19T13:28:00;4.80;;;1.10;;
62616;SDS011;62539;51.190;6.808;2023-09-19T13:30:29;2.90;;;1.30;;
62616;SDS011;62539;51.190;6.808;2023-09-19T13:33:09;3.25;;;1.05;;
62616;SDS011;62539;51.190;6.808;2023-09-19T13:35:36;2.30;;;0.90;;
62616;SDS011;62539;51.190;6.808;2023-09-19T13:38:05;1.52;;;0.88;;
62616;SDS011;62539;51.190;6.808;2023-09-19T13:40:34;4.33;;;1.40;;
62616;SDS011;62539;51.190;6.808;2023-09-19T13:43:00;2.20;;;1.08;;
62616;SDS011;62539;51.190;6.808;2023-09-19T13:45:26;2.28;;;0.90;;
62616;SDS011;62539;51.190;6.808;2023-09-19T13:47:52;3.25;;;1.38;;
62616;SDS011;62539;51.190;6.808;2023-09-19T13:50:18;3.58;;;1.08;;
62616;SDS011;62539;51.190;6.808;2023-09-19T13:52:48;3.10;;;0.85;;
62616;SDS011;62539;51.190;6.808;2023-09-19T13:55:16;3.00;;;1.05;;
62616;SDS011;62539;51.190;6.808;2023-09-19T13:57:45;1.52;;;0.90;;
62616;SDS011;62539;51.190;6.808;2023-09-19T14:00:15;2.85;;;0.95;;
62616;SDS011;62539;51.190;6.808;2023-09-19T14:02:42;2.67;;;1.00;;
62616;SDS011;62539;51.190;6.808;2023-09-19T14:05:10;1.42;;;1.00;;
62616;SDS011;62539;51.190;6.808;2023-09-19T14:07:39;2.00;;;1.00;;
62616;SDS011;62539;51.190;6.808;2023-09-19T14:10:06;2.55;;;1.30;;
62616;SDS011;62539;51.190;6.808;2023-09-19T14:12:36;1.92;;;0.85;;
62616;SDS011;62539;51.190;6.808;2023-09-19T14:15:03;1.38;;;0.88;;
62616;SDS011;62539;51.190;6.808;2023-09-19T14:17:35;1.73;;;0.82;;
62616;SDS011;62539;51.190;6.808;2023-09-19T14:20:01;3.25;;;0.80;;
62616;SDS011;62539;51.190;6.808;2023-09-19T14:22:27;1.92;;;1.17;;
62616;SDS011;62539;51.190;6.808;2023-09-19T14:24:52;4.03;;;0.90;;
62616;SDS011;62539;51.190;6.808;2023-09-19T14:27:18;1.58;;;1.02;;
62616;SDS011;62539;51.190;6.808;2023-09-19T14:29:44;3.22;;;1.10;;
62616;SDS011;62539;51.190;6.808;2023-09-19T14:32:09;1.52;;;0.98;;
62616;SDS011;62539;51.190;6.808;2023-09-19T14:34:36;1.92;;;1.10;;
62616;SDS011;62539;51.190;6.808;2023-09-19T14:37:06;3.13;;;0.77;;
62616;SDS011;62539;51.190;6.808;2023-09-19T14:39:32;1.77;;;0.82;;
62616;SDS011;62539;51.190;6.808;2023-09-19T14:41:58;3.05;;;0.70;;
62616;SDS011;62539;51.190;6.808;2023-09-19T14:44:23;2.78;;;1.00;;
62616;SDS011;62539;51.190;6.808;2023-09-19T14:46:48;1.77;;;0.85;;
62616;SDS011;62539;51.190;6.808;2023-09-19T14:49:14;1.55;;;0.90;;
62616;SDS011;62539;51.190;6.808;2023-09-19T14:51:41;1.10;;;0.68;;
62616;SDS011;62539;51.190;6.808;2023-09-19T14:54:09;2.20;;;0.90;;
62616;SDS011;62539;51.190;6.808;2023-09-19T14:56:34;1.05;;;0.80;;
62616;SDS011;62539;51.190;6.808;2023-09-19T14:59:00;2.42;;;0.95;;
62616;SDS011;62539;51.190;6.808;2023-09-19T15:01:25;0.98;;;0.60;;
62616;SDS011;62539;51.190;6.808;2023-09-19T15:03:51;1.45;;;0.80;;
62616;SDS011;62539;51.190;6.808;2023-09-19T15:06:16;1.65;;;0.73;;
62616;SDS011;62539;51.190;6.808;2023-09-19T15:08:44;2.30;;;0.88;;
62616;SDS011;62539;51.190;6.808;2023-09-19T15:11:15;2.53;;;1.10;;
62616;SDS011;62539;51.190;6.808;2023-09-19T15:13:42;2.88;;;0.90;;
62616;SDS011;62539;51.190;6.808;2023-09-19T15:16:10;8.07;;;1.10;;
62616;SDS011;62539;51.190;6.808;2023-09-19T15:18:42;5.78;;;1.00;;
62616;SDS011;62539;51.190;6.808;2023-09-19T15:21:12;2.42;;;0.80;;
62616;SDS011;62539;51.190;6.808;2023-09-19T15:23:39;4.43;;;1.02;;
62616;SDS011;62539;51.190;6.808;2023-09-19T15:26:08;2.03;;;1.10;;
62616;SDS011;62539;51.190;6.808;2023-09-19T15:28:36;3.90;;;0.80;;
62616;SDS011;62539;51.190;6.808;2023-09-19T15:31:03;6.18;;;1.38;;
62616;SDS011;62539;51.190;6.808;2023-09-19T15:33:31;23.85;;;1.13;;
62616;SDS011;62539;51.190;6.808;2023-09-19T15:41:31;10.18;;;1.00;;
62616;SDS011;62539;51.190;6.808;2023-09-19T15:43:59;2.78;;;0.90;;
62616;SDS011;62539;51.190;6.808;2023-09-19T15:46:27;3.15;;;0.90;;
62616;SDS011;62539;51.190;6.808;2023-09-19T15:48:54;8.13;;;1.05;;
62616;SDS011;62539;51.190;6.808;2023-09-19T15:51:21;4.18;;;1.05;;
62616;SDS011;62539;51.190;6.808;2023-09-19T15:53:48;2.50;;;0.60;;
62616;SDS011;62539;51.190;6.808;2023-09-19T15:56:15;3.03;;;0.75;;
62616;SDS011;62539;51.190;6.808;2023-09-19T15:58:52;3.22;;;0.90;;
62616;SDS011;62539;51.190;6.808;2023-09-19T16:01:20;4.82;;;0.60;;
62616;SDS011;62539;51.190;6.808;2023-09-19T16:03:50;1.17;;;0.70;;
62616;SDS011;62539;51.190;6.808;2023-09-19T16:06:21;4.97;;;0.98;;
62616;SDS011;62539;51.190;6.808;2023-09-19T16:08:55;1.95;;;0.80;;
62616;SDS011;62539;51.190;6.808;2023-09-19T16:11:23;3.80;;;0.95;;
62616;SDS011;62539;51.190;6.808;2023-09-19T16:13:50;3.92;;;1.05;;
62616;SDS011;62539;51.190;6.808;2023-09-19T16:16:18;2.95;;;0.90;;